sensor_id;sensor_type;location;lat;lon;timestamp;P1;durP1;ratioP1;P2;durP2;ratioP2
59207;SDS011;44977;53.132;6.408;2023-07-08T00:03:47;8.30;;;4.15;;
59207;SDS011;44977;53.132;6.408;2023-07-08T00:08:48;7.45;;;4.40;;
59207;SDS011;44977;53.132;6.408;2023-07-08T00:13:49;7.50;;;4.07;;
59207;SDS011;44977;53.132;6.408;2023-07-08T00:18:50;8.10;;;3.80;;
59207;SDS011;44977;53.132;6.408;2023-07-08T00:23:51;8.32;;;4.40;;
59207;SDS011;44977;53.132;6.408;2023-07-08T00:28:51;9.60;;;4.15;;
59207;SDS011;44977;53.132;6.408;2023-07-08T00:33:53;8.85;;;4.45;;
59207;SDS011;44977;53.132;6.408;2023-07-08T00:38:56;8.25;;;4.40;;
59207;SDS011;44977;53.132;6.408;2023-07-08T00:43:57;8.43;;;4.07;;
59207;SDS011;44977;53.132;6.408;2023-07-08T00:54:12;7.18;;;3.97;;
59207;SDS011;44977;53.132;6.408;2023-07-08T00:59:20;8.95;;;4.30;;
59207;SDS011;44977;53.132;6.408;2023-07-08T01:04:33;7.65;;;4.00;;
59207;SDS011;44977;53.132;6.408;2023-07-08T01:09:40;11.13;;;4.38;;
59207;SDS011;44977;53.132;6.408;2023-07-08T01:14:44;8.05;;;4.30;;
59207;SDS011;44977;53.132;6.408;2023-07-08T01:19:47;9.95;;;4.43;;
59207;SDS011;44977;53.132;6.408;2023-07-08T01:24:51;8.02;;;4.28;;
59207;SDS011;44977;53.132;6.408;2023-07-08T01:29:51;8.90;;;4.55;;
59207;SDS011;44977;53.132;6.408;2023-07-08T01:34:54;9.23;;;4.60;;
59207;SDS011;44977;53.132;6.408;2023-07-08T01:45:37;7.60;;;4.28;;
59207;SDS011;44977;53.132;6.408;2023-07-08T01:50:47;8.00;;;4.03;;
59207;SDS011;44977;53.132;6.408;2023-07-08T01:55:57;9.20;;;4.85;;
59207;SDS011;44977;53.132;6.408;2023-07-08T02:00:58;8.65;;;4.50;;
59207;SDS011;44977;53.132;6.408;2023-07-08T02:06:00;8.35;;;4.50;;
59207;SDS011;44977;53.132;6.408;2023-07-08T02:11:00;9.15;;;4.60;;
59207;SDS011;44977;53.132;6.408;2023-07-08T02:16:01;8.15;;;4.95;;
59207;SDS011;44977;53.132;6.408;2023-07-08T02:21:02;9.18;;;5.35;;
59207;SDS011;44977;53.132;6.408;2023-07-08T02:26:03;8.63;;;4.75;;
59207;SDS011;44977;53.132;6.408;2023-07-08T02:31:03;10.63;;;5.35;;
59207;SDS011;44977;53.132;6.408;2023-07-08T02:36:04;8.70;;;5.10;;
59207;SDS011;44977;53.132;6.408;2023-07-08T02:41:05;8.35;;;5.20;;
59207;SDS011;44977;53.132;6.408;2023-07-08T02:46:06;7.93;;;4.57;;
59207;SDS011;44977;53.132;6.408;2023-07-08T02:51:06;9.50;;;4.93;;
59207;SDS011;44977;53.132;6.408;2023-07-08T02:56:09;8.43;;;5.30;;
59207;SDS011;44977;53.132;6.408;2023-07-08T03:01:09;8.05;;;5.30;;
59207;SDS011;44977;53.132;6.408;2023-07-08T03:06:10;10.65;;;6.03;;
59207;SDS011;44977;53.132;6.408;2023-07-08T03:11:11;8.07;;;5.22;;
59207;SDS011;44977;53.132;6.408;2023-07-08T03:16:12;8.00;;;5.55;;
59207;SDS011;44977;53.132;6.408;2023-07-08T03:21:13;10.73;;;6.68;;
59207;SDS011;44977;53.132;6.408;2023-07-08T03:26:17;9.88;;;5.95;;
59207;SDS011;44977;53.132;6.408;2023-07-08T03:31:19;9.23;;;5.50;;
59207;SDS011;44977;53.132;6.408;2023-07-08T03:36:20;9.50;;;5.60;;
59207;SDS011;44977;53.132;6.408;2023-07-08T03:41:24;8.90;;;5.85;;
59207;SDS011;44977;53.132;6.408;2023-07-08T03:46:25;8.93;;;5.75;;
59207;SDS011;44977;53.132;6.408;2023-07-08T03:51:30;10.38;;;6.10;;
59207;SDS011;44977;53.132;6.408;2023-07-08T03:56:33;12.13;;;5.72;;
59207;SDS011;44977;53.132;6.408;2023-07-08T04:01:34;9.40;;;5.72;;
59207;SDS011;44977;53.132;6.408;2023-07-08T04:06:34;9.38;;;6.38;;
59207;SDS011;44977;53.132;6.408;2023-07-08T04:11:35;10.20;;;6.53;;
59207;SDS011;44977;53.132;6.408;2023-07-08T04:16:42;9.93;;;6.13;;
59207;SDS011;44977;53.132;6.408;2023-07-08T04:21:58;9.00;;;5.80;;
59207;SDS011;44977;53.132;6.408;2023-07-08T04:27:00;10.25;;;6.25;;
59207;SDS011;44977;53.132;6.408;2023-07-08T04:32:01;8.80;;;5.72;;
59207;SDS011;44977;53.132;6.408;2023-07-08T04:37:02;8.77;;;5.93;;
59207;SDS011;44977;53.132;6.408;2023-07-08T04:42:04;9.98;;;5.97;;
59207;SDS011;44977;53.132;6.408;2023-07-08T04:47:05;9.40;;;5.95;;
59207;SDS011;44977;53.132;6.408;2023-07-08T04:52:06;11.48;;;6.03;;
59207;SDS011;44977;53.132;6.408;2023-07-08T04:57:07;9.75;;;6.07;;
59207;SDS011;44977;53.132;6.408;2023-07-08T05:02:08;10.38;;;6.28;;
59207;SDS011;44977;53.132;6.408;2023-07-08T05:07:09;10.23;;;6.18;;
59207;SDS011;44977;53.132;6.408;2023-07-08T05:12:09;9.88;;;6.22;;
59207;SDS011;44977;53.132;6.408;2023-07-08T05:17:11;9.20;;;6.03;;
59207;SDS011;44977;53.132;6.408;2023-07-08T05:22:12;9.43;;;5.93;;
59207;SDS011;44977;53.132;6.408;2023-07-08T05:27:13;9.68;;;5.82;;
59207;SDS011;44977;53.132;6.408;2023-07-08T05:32:15;9.90;;;5.95;;
59207;SDS011;44977;53.132;6.408;2023-07-08T05:37:16;9.45;;;5.65;;
59207;SDS011;44977;53.132;6.408;2023-07-08T05:42:21;10.15;;;5.90;;
59207;SDS011;44977;53.132;6.408;2023-07-08T05:47:22;8.02;;;5.32;;
59207;SDS011;44977;53.132;6.408;2023-07-08T05:52:23;9.02;;;5.22;;
59207;SDS011;44977;53.132;6.408;2023-07-08T05:57:23;8.10;;;4.93;;
59207;SDS011;44977;53.132;6.408;2023-07-08T06:02:24;9.50;;;4.93;;
59207;SDS011;44977;53.132;6.408;2023-07-08T06:07:25;9.60;;;5.57;;
59207;SDS011;44977;53.132;6.408;2023-07-08T06:12:27;7.43;;;4.78;;
59207;SDS011;44977;53.132;6.408;2023-07-08T06:17:27;7.63;;;4.97;;
59207;SDS011;44977;53.132;6.408;2023-07-08T06:22:28;8.35;;;4.63;;
59207;SDS011;44977;53.132;6.408;2023-07-08T06:27:29;7.70;;;4.53;;
59207;SDS011;44977;53.132;6.408;2023-07-08T06:32:29;9.43;;;4.68;;
59207;SDS011;44977;53.132;6.408;2023-07-08T06:37:30;8.50;;;4.50;;
59207;SDS011;44977;53.132;6.408;2023-07-08T06:42:31;8.13;;;4.18;;
59207;SDS011;44977;53.132;6.408;2023-07-08T06:47:31;7.78;;;4.43;;
59207;SDS011;44977;53.132;6.408;2023-07-08T06:52:32;8.27;;;4.43;;
59207;SDS011;44977;53.132;6.408;2023-07-08T06:57:35;8.55;;;4.47;;
59207;SDS011;44977;53.132;6.408;2023-07-08T07:02:38;7.90;;;4.43;;
59207;SDS011;44977;53.132;6.408;2023-07-08T07:07:39;8.95;;;4.55;;
59207;SDS011;44977;53.132;6.408;2023-07-08T07:12:39;8.43;;;4.10;;
59207;SDS011;44977;53.132;6.408;2023-07-08T07:17:40;7.03;;;3.92;;
59207;SDS011;44977;53.132;6.408;2023-07-08T07:22:41;8.18;;;4.25;;
59207;SDS011;44977;53.132;6.408;2023-07-08T07:27:41;8.38;;;4.05;;
59207;SDS011;44977;53.132;6.408;2023-07-08T07:32:42;7.78;;;4.20;;
59207;SDS011;44977;53.132;6.408;2023-07-08T07:37:43;7.75;;;4.10;;
59207;SDS011;44977;53.132;6.408;2023-07-08T07:42:45;8.02;;;3.85;;
59207;SDS011;44977;53.132;6.408;2023-07-08T07:47:47;7.65;;;3.75;;
59207;SDS011;44977;53.132;6.408;2023-07-08T07:52:47;8.00;;;4.03;;
59207;SDS011;44977;53.132;6.408;2023-07-08T07:57:48;9.07;;;4.20;;
59207;SDS011;44977;53.132;6.408;2023-07-08T08:02:49;7.82;;;4.00;;
59207;SDS011;44977;53.132;6.408;2023-07-08T08:07:49;8.00;;;3.80;;
59207;SDS011;44977;53.132;6.408;2023-07-08T08:12:50;7.78;;;3.67;;
59207;SDS011;44977;53.132;6.408;2023-07-08T08:17:52;9.43;;;3.88;;
59207;SDS011;44977;53.132;6.408;2023-07-08T08:22:53;7.32;;;3.53;;
59207;SDS011;44977;53.132;6.408;2023-07-08T08:27:54;8.25;;;3.90;;
59207;SDS011;44977;53.132;6.408;2023-07-08T08:32:56;6.85;;;3.85;;
59207;SDS011;44977;53.132;6.408;2023-07-08T08:37:56;7.75;;;3.85;;
59207;SDS011;44977;53.132;6.408;2023-07-08T08:42:59;9.15;;;3.72;;
59207;SDS011;44977;53.132;6.408;2023-07-08T08:48:03;6.93;;;3.88;;
59207;SDS011;44977;53.132;6.408;2023-07-08T08:53:11;7.30;;;3.60;;
59207;SDS011;44977;53.132;6.408;2023-07-08T09:03:37;8.05;;;3.70;;
59207;SDS011;44977;53.132;6.408;2023-07-08T09:13:52;12.60;;;4.35;;
59207;SDS011;44977;53.132;6.408;2023-07-08T09:19:03;6.82;;;3.38;;
59207;SDS011;44977;53.132;6.408;2023-07-08T09:24:41;8.23;;;3.53;;
59207;SDS011;44977;53.132;6.408;2023-07-08T09:29:56;9.18;;;3.60;;
59207;SDS011;44977;53.132;6.408;2023-07-08T09:35:04;6.97;;;3.67;;
59207;SDS011;44977;53.132;6.408;2023-07-08T09:45:39;8.13;;;3.90;;
59207;SDS011;44977;53.132;6.408;2023-07-08T09:50:43;7.60;;;4.20;;
59207;SDS011;44977;53.132;6.408;2023-07-08T09:55:45;7.65;;;3.67;;
59207;SDS011;44977;53.132;6.408;2023-07-08T10:00:46;6.97;;;3.70;;
59207;SDS011;44977;53.132;6.408;2023-07-08T10:05:54;7.93;;;4.18;;
59207;SDS011;44977;53.132;6.408;2023-07-08T10:11:19;7.93;;;3.88;;
59207;SDS011;44977;53.132;6.408;2023-07-08T10:16:29;8.10;;;3.65;;
59207;SDS011;44977;53.132;6.408;2023-07-08T10:26:58;8.05;;;3.78;;
59207;SDS011;44977;53.132;6.408;2023-07-08T10:38:13;11.60;;;3.70;;
59207;SDS011;44977;53.132;6.408;2023-07-08T10:43:30;8.10;;;3.53;;
59207;SDS011;44977;53.132;6.408;2023-07-08T10:54:17;9.15;;;3.60;;
59207;SDS011;44977;53.132;6.408;2023-07-08T11:09:59;7.15;;;3.92;;
59207;SDS011;44977;53.132;6.408;2023-07-08T11:20:19;7.90;;;4.07;;
59207;SDS011;44977;53.132;6.408;2023-07-08T11:25:24;6.65;;;3.53;;
59207;SDS011;44977;53.132;6.408;2023-07-08T11:30:28;9.80;;;4.03;;
59207;SDS011;44977;53.132;6.408;2023-07-08T11:40:31;6.82;;;3.60;;
59207;SDS011;44977;53.132;6.408;2023-07-08T11:45:49;7.55;;;4.10;;
59207;SDS011;44977;53.132;6.408;2023-07-08T11:50:51;10.02;;;3.80;;
59207;SDS011;44977;53.132;6.408;2023-07-08T11:55:56;8.40;;;4.00;;
59207;SDS011;44977;53.132;6.408;2023-07-08T12:01:16;6.35;;;3.70;;
59207;SDS011;44977;53.132;6.408;2023-07-08T12:11:32;7.57;;;3.90;;
59207;SDS011;44977;53.132;6.408;2023-07-08T12:16:34;8.23;;;3.70;;
59207;SDS011;44977;53.132;6.408;2023-07-08T12:21:36;6.95;;;3.70;;
59207;SDS011;44977;53.132;6.408;2023-07-08T12:26:37;7.05;;;3.90;;
59207;SDS011;44977;53.132;6.408;2023-07-08T12:31:37;5.88;;;3.60;;
59207;SDS011;44977;53.132;6.408;2023-07-08T12:36:39;6.70;;;3.70;;
59207;SDS011;44977;53.132;6.408;2023-07-08T12:41:41;7.13;;;4.15;;
59207;SDS011;44977;53.132;6.408;2023-07-08T12:46:42;8.25;;;4.00;;
59207;SDS011;44977;53.132;6.408;2023-07-08T12:51:43;8.10;;;4.53;;
59207;SDS011;44977;53.132;6.408;2023-07-08T12:56:45;8.07;;;4.30;;
59207;SDS011;44977;53.132;6.408;2023-07-08T13:01:46;7.18;;;3.97;;
59207;SDS011;44977;53.132;6.408;2023-07-08T13:06:48;8.30;;;4.28;;
59207;SDS011;44977;53.132;6.408;2023-07-08T13:11:49;6.68;;;4.07;;
59207;SDS011;44977;53.132;6.408;2023-07-08T13:16:52;7.28;;;4.28;;
59207;SDS011;44977;53.132;6.408;2023-07-08T13:21:53;8.75;;;4.35;;
59207;SDS011;44977;53.132;6.408;2023-07-08T13:26:55;9.02;;;5.20;;
59207;SDS011;44977;53.132;6.408;2023-07-08T13:32:01;8.35;;;5.13;;
59207;SDS011;44977;53.132;6.408;2023-07-08T13:37:08;7.80;;;4.70;;
59207;SDS011;44977;53.132;6.408;2023-07-08T13:42:11;7.88;;;4.72;;
59207;SDS011;44977;53.132;6.408;2023-07-08T13:47:30;7.82;;;4.72;;
59207;SDS011;44977;53.132;6.408;2023-07-08T13:52:31;8.43;;;4.47;;
59207;SDS011;44977;53.132;6.408;2023-07-08T13:57:33;7.55;;;4.70;;
59207;SDS011;44977;53.132;6.408;2023-07-08T14:02:36;7.32;;;4.45;;
59207;SDS011;44977;53.132;6.408;2023-07-08T14:07:42;8.07;;;4.93;;
59207;SDS011;44977;53.132;6.408;2023-07-08T14:12:44;8.13;;;4.75;;
59207;SDS011;44977;53.132;6.408;2023-07-08T14:17:45;8.18;;;5.00;;
59207;SDS011;44977;53.132;6.408;2023-07-08T14:22:46;9.30;;;5.10;;
59207;SDS011;44977;53.132;6.408;2023-07-08T14:27:46;8.77;;;5.38;;
59207;SDS011;44977;53.132;6.408;2023-07-08T14:32:47;8.45;;;5.05;;
59207;SDS011;44977;53.132;6.408;2023-07-08T14:37:48;8.10;;;5.10;;
59207;SDS011;44977;53.132;6.408;2023-07-08T14:42:50;8.75;;;5.50;;
59207;SDS011;44977;53.132;6.408;2023-07-08T14:48:08;9.55;;;5.75;;
59207;SDS011;44977;53.132;6.408;2023-07-08T14:58:17;9.52;;;5.60;;
59207;SDS011;44977;53.132;6.408;2023-07-08T15:03:24;8.57;;;5.78;;
59207;SDS011;44977;53.132;6.408;2023-07-08T15:08:25;9.13;;;5.80;;
59207;SDS011;44977;53.132;6.408;2023-07-08T15:13:27;9.40;;;6.30;;
59207;SDS011;44977;53.132;6.408;2023-07-08T15:18:30;8.65;;;5.75;;
59207;SDS011;44977;53.132;6.408;2023-07-08T15:23:30;11.63;;;6.00;;
59207;SDS011;44977;53.132;6.408;2023-07-08T15:28:52;9.70;;;5.97;;
59207;SDS011;44977;53.132;6.408;2023-07-08T15:33:52;10.30;;;6.50;;
59207;SDS011;44977;53.132;6.408;2023-07-08T15:38:53;11.75;;;6.57;;
59207;SDS011;44977;53.132;6.408;2023-07-08T15:43:54;9.32;;;5.95;;
59207;SDS011;44977;53.132;6.408;2023-07-08T15:48:56;8.65;;;6.20;;
59207;SDS011;44977;53.132;6.408;2023-07-08T15:53:56;9.27;;;6.18;;
59207;SDS011;44977;53.132;6.408;2023-07-08T15:58:57;9.43;;;6.03;;
59207;SDS011;44977;53.132;6.408;2023-07-08T16:03:58;9.55;;;6.28;;
59207;SDS011;44977;53.132;6.408;2023-07-08T16:08:58;9.77;;;6.15;;
59207;SDS011;44977;53.132;6.408;2023-07-08T16:13:59;11.10;;;6.65;;
59207;SDS011;44977;53.132;6.408;2023-07-08T16:19:00;9.90;;;5.82;;
59207;SDS011;44977;53.132;6.408;2023-07-08T16:24:00;9.05;;;6.20;;
59207;SDS011;44977;53.132;6.408;2023-07-08T16:29:01;8.75;;;5.93;;
59207;SDS011;44977;53.132;6.408;2023-07-08T16:34:04;9.48;;;5.85;;
59207;SDS011;44977;53.132;6.408;2023-07-08T16:39:05;8.23;;;5.68;;
59207;SDS011;44977;53.132;6.408;2023-07-08T16:44:12;9.00;;;5.90;;
59207;SDS011;44977;53.132;6.408;2023-07-08T16:49:15;10.25;;;5.97;;
59207;SDS011;44977;53.132;6.408;2023-07-08T16:54:17;9.20;;;6.05;;
59207;SDS011;44977;53.132;6.408;2023-07-08T16:59:18;10.68;;;6.63;;
59207;SDS011;44977;53.132;6.408;2023-07-08T17:04:19;10.10;;;6.47;;
59207;SDS011;44977;53.132;6.408;2023-07-08T17:09:20;9.10;;;6.10;;
59207;SDS011;44977;53.132;6.408;2023-07-08T17:14:20;11.00;;;6.20;;
59207;SDS011;44977;53.132;6.408;2023-07-08T17:19:21;8.57;;;5.85;;
59207;SDS011;44977;53.132;6.408;2023-07-08T17:24:22;10.52;;;6.20;;
59207;SDS011;44977;53.132;6.408;2023-07-08T17:29:24;10.98;;;6.70;;
59207;SDS011;44977;53.132;6.408;2023-07-08T17:34:26;9.32;;;6.43;;
59207;SDS011;44977;53.132;6.408;2023-07-08T17:39:27;9.27;;;6.22;;
59207;SDS011;44977;53.132;6.408;2023-07-08T17:44:28;9.73;;;6.32;;
59207;SDS011;44977;53.132;6.408;2023-07-08T17:49:29;9.25;;;6.25;;
59207;SDS011;44977;53.132;6.408;2023-07-08T17:54:29;8.93;;;6.55;;
59207;SDS011;44977;53.132;6.408;2023-07-08T17:59:31;8.32;;;5.90;;
59207;SDS011;44977;53.132;6.408;2023-07-08T18:04:31;9.60;;;6.78;;
59207;SDS011;44977;53.132;6.408;2023-07-08T18:09:32;9.43;;;6.32;;
59207;SDS011;44977;53.132;6.408;2023-07-08T18:14:33;10.20;;;7.05;;
59207;SDS011;44977;53.132;6.408;2023-07-08T18:19:34;10.60;;;6.88;;
59207;SDS011;44977;53.132;6.408;2023-07-08T18:24:34;8.52;;;6.25;;
59207;SDS011;44977;53.132;6.408;2023-07-08T18:29:35;9.23;;;6.35;;
59207;SDS011;44977;53.132;6.408;2023-07-08T18:34:36;10.00;;;6.70;;
59207;SDS011;44977;53.132;6.408;2023-07-08T18:39:37;10.68;;;7.35;;
59207;SDS011;44977;53.132;6.408;2023-07-08T18:44:39;9.82;;;7.07;;
59207;SDS011;44977;53.132;6.408;2023-07-08T18:49:39;11.55;;;7.43;;
59207;SDS011;44977;53.132;6.408;2023-07-08T18:54:40;11.43;;;6.90;;
59207;SDS011;44977;53.132;6.408;2023-07-08T18:59:41;10.35;;;6.50;;
59207;SDS011;44977;53.132;6.408;2023-07-08T19:04:42;9.95;;;6.82;;
59207;SDS011;44977;53.132;6.408;2023-07-08T19:09:43;9.98;;;6.72;;
59207;SDS011;44977;53.132;6.408;2023-07-08T19:14:44;9.70;;;6.53;;
59207;SDS011;44977;53.132;6.408;2023-07-08T19:19:44;9.45;;;6.38;;
59207;SDS011;44977;53.132;6.408;2023-07-08T19:24:45;11.70;;;7.55;;
59207;SDS011;44977;53.132;6.408;2023-07-08T19:29:48;10.52;;;7.40;;
59207;SDS011;44977;53.132;6.408;2023-07-08T19:34:49;10.25;;;7.25;;
59207;SDS011;44977;53.132;6.408;2023-07-08T19:39:49;9.88;;;7.30;;
59207;SDS011;44977;53.132;6.408;2023-07-08T19:44:51;10.70;;;7.50;;
59207;SDS011;44977;53.132;6.408;2023-07-08T19:49:52;13.93;;;7.57;;
59207;SDS011;44977;53.132;6.408;2023-07-08T19:54:52;12.25;;;8.02;;
59207;SDS011;44977;53.132;6.408;2023-07-08T19:59:55;9.65;;;6.97;;
59207;SDS011;44977;53.132;6.408;2023-07-08T20:04:56;12.15;;;7.45;;
59207;SDS011;44977;53.132;6.408;2023-07-08T20:09:57;10.55;;;7.55;;
59207;SDS011;44977;53.132;6.408;2023-07-08T20:14:59;10.43;;;7.25;;
59207;SDS011;44977;53.132;6.408;2023-07-08T20:19:59;11.75;;;7.50;;
59207;SDS011;44977;53.132;6.408;2023-07-08T20:25:00;9.50;;;6.50;;
59207;SDS011;44977;53.132;6.408;2023-07-08T20:30:01;10.15;;;6.95;;
59207;SDS011;44977;53.132;6.408;2023-07-08T20:35:02;14.82;;;7.22;;
59207;SDS011;44977;53.132;6.408;2023-07-08T20:40:04;9.30;;;6.60;;
59207;SDS011;44977;53.132;6.408;2023-07-08T20:45:14;10.20;;;6.97;;
59207;SDS011;44977;53.132;6.408;2023-07-08T20:50:17;10.63;;;6.95;;
59207;SDS011;44977;53.132;6.408;2023-07-08T20:55:22;11.20;;;6.80;;
59207;SDS011;44977;53.132;6.408;2023-07-08T21:00:25;9.68;;;6.40;;
59207;SDS011;44977;53.132;6.408;2023-07-08T21:05:26;10.98;;;6.82;;
59207;SDS011;44977;53.132;6.408;2023-07-08T21:10:28;9.45;;;6.78;;
59207;SDS011;44977;53.132;6.408;2023-07-08T21:15:30;11.30;;;6.88;;
59207;SDS011;44977;53.132;6.408;2023-07-08T21:20:32;10.75;;;6.63;;
59207;SDS011;44977;53.132;6.408;2023-07-08T21:25:33;9.95;;;6.85;;
59207;SDS011;44977;53.132;6.408;2023-07-08T21:30:34;9.65;;;7.05;;
59207;SDS011;44977;53.132;6.408;2023-07-08T21:35:41;11.43;;;7.03;;
59207;SDS011;44977;53.132;6.408;2023-07-08T21:40:47;9.93;;;6.82;;
59207;SDS011;44977;53.132;6.408;2023-07-08T21:45:49;10.93;;;7.15;;
59207;SDS011;44977;53.132;6.408;2023-07-08T21:50:53;9.82;;;6.47;;
59207;SDS011;44977;53.132;6.408;2023-07-08T21:55:55;10.13;;;6.90;;
59207;SDS011;44977;53.132;6.408;2023-07-08T22:00:57;10.73;;;7.55;;
59207;SDS011;44977;53.132;6.408;2023-07-08T22:05:58;9.13;;;6.45;;
59207;SDS011;44977;53.132;6.408;2023-07-08T22:10:59;10.63;;;6.90;;
59207;SDS011;44977;53.132;6.408;2023-07-08T22:16:04;10.23;;;7.50;;
59207;SDS011;44977;53.132;6.408;2023-07-08T22:26:21;10.20;;;7.75;;
59207;SDS011;44977;53.132;6.408;2023-07-08T22:31:24;10.55;;;7.45;;
59207;SDS011;44977;53.132;6.408;2023-07-08T22:36:26;10.80;;;7.85;;
59207;SDS011;44977;53.132;6.408;2023-07-08T22:41:27;11.25;;;7.78;;
59207;SDS011;44977;53.132;6.408;2023-07-08T22:46:32;10.88;;;7.47;;
59207;SDS011;44977;53.132;6.408;2023-07-08T22:51:39;9.60;;;7.43;;
59207;SDS011;44977;53.132;6.408;2023-07-08T22:56:42;14.93;;;7.93;;
59207;SDS011;44977;53.132;6.408;2023-07-08T23:01:43;9.57;;;7.28;;
59207;SDS011;44977;53.132;6.408;2023-07-08T23:06:44;10.80;;;7.22;;
59207;SDS011;44977;53.132;6.408;2023-07-08T23:11:45;10.35;;;7.65;;
59207;SDS011;44977;53.132;6.408;2023-07-08T23:16:46;12.23;;;9.50;;
59207;SDS011;44977;53.132;6.408;2023-07-08T23:21:48;11.48;;;8.98;;
59207;SDS011;44977;53.132;6.408;2023-07-08T23:26:48;11.75;;;8.48;;
59207;SDS011;44977;53.132;6.408;2023-07-08T23:31:51;11.93;;;8.52;;
59207;SDS011;44977;53.132;6.408;2023-07-08T23:36:51;11.20;;;8.82;;
59207;SDS011;44977;53.132;6.408;2023-07-08T23:41:53;11.50;;;7.82;;
59207;SDS011;44977;53.132;6.408;2023-07-08T23:46:56;11.93;;;8.10;;
59207;SDS011;44977;53.132;6.408;2023-07-08T23:51:59;10.75;;;7.75;;
59207;SDS011;44977;53.132;6.408;2023-07-08T23:57:02;12.02;;;7.93;;
